Springdale, Connecticut
Current Conditions -  °F | °C
As of 12:56 PM on Friday 24 Oct 2014 (Local Time) from KHPN Reporting Station
Broken Clouds Broken Clouds  
Wind Chill: 12°   Ceiling: 3000
Heat Index: 12°   Visibility: 10mi
Dew Point:   Wind: 13mph
Humidity: 64%   Direction: 320°NW
Pressure: 29.77"   Gusts: 24mph
Location:  41.1005°N, 73.521°W
Report Text: KHPN 241656Z 32011G21KT 10SM BKN030 12/06 A2977 RMK AO2 SLP083 T01220056
Loading
Personal Weather Stations






























Interactive Weather Map
Tropical Storm Tracking
New forecast layout! Learn more

10-Day Weather Forecast

Advertisements
Track Severe Weather on mobile